Aeroporto :
LOGIN :

Iscrizione | Disclaimer

   EN    FR    IT 

 










Sommario :    VFR   VFR Marginale   IFR   IFR Intensivo   IFR Molto Intensivo
Visibilità : 
Base nubi : 
>= 8 km
>= 3000ft
5 / 8 km
1000 / 3000 ft
1500m / 5 km
500 / 1000 ft
800 / 1500m
200 / 500 ft
< 800m
< 200 ft
Simboli :   Temporali  Nebbia  Neve Forte  Precipitazioni Forti  Vento > 20 kt
SIGMETs :   Varie  Temporali  Ghiacco  Turbolenza  Onda orograficha  Ceneri Vulcaniche






- Altitudine del aeroporto : 80 ft
- Codice IATA : LPL


EGGP - Liverpool John Lennon

ULTIMO METAR :
  • 111820Z 29010KT 9999 FEW030 15/07 Q1028

METARs OBSOLETI :
  • 111750Z 28011KT 9999 FEW030 15/07 Q1028
  • 111720Z 29012KT 250V310 9999 SCT038 17/07 Q1028
  • 111650Z 29012KT 9999 SCT040 16/06 Q1028
  • 111620Z 29012KT 9999 SCT037 16/07 Q1028
  • 111550Z 29012KT 260V340 9999 SCT035 16/07 Q1028

TAF TAF EGGP
Valido dal 11 a 18 ore il 12 a 18 ore UTC


111657Z 1118/1218 29010KT 9999 SCT040
BECMG 1200/1203 20004KT
PROB30 1202/1206 7000
ATIS : +44 151 907 2000 (option 5 or ext 5150)
Met : +44 871 750 5150



MetMap, La meteo Aeronautica in un colpo d'occhio ! - Copyright ORBIFLY Dicembre 2007 - Disclaimer

ORBIFLY MET'MAP TEAM :

Programmazione e sviluppo : Alexandra Zaïnal
Concezione : Baudouin d'Aumeries
Aiuto per la programmazione : Marc-Olivier Méhu
Supporto tecnico e logistico : Manuel Goepfert
Aiuto per la traduzione : Arnaldo La Scala

Contatto : metmap@orbifly.com




FONTI E CREDITI :

   NOAA